Timeline UpdatesTrip UpdatesNews PostsPvt PostsTravel TipsAdmin PostsConv PostsFollowed PostsChat RequestsBlog PostsPNR Posts

Disclaimer
Search
 
 
Thu Aug 21, 2014 00:02:51 ISTHomeTrainsΣChainsAtlasPNRForumGalleryNewsFAQTripsMembersLoginFeedback
No Recent News for this Train
Other Trains in the News **new
Latest...
⇐ Return Journey: Train# 53043

53044/Rajgir - Howrah Passenger (UnReserved)

Nov 04 2013 (6:59AM)
Change Departure Station:
Change Arrival Station:
Post a Train Travel TipPost a Train Travel Tip **new
Post a Comment/Question/Picture/VideoPost a Comment/Question/Picture/Video
Pantry/Catering
✕ NO Pantry Car
✕ NO Catering
RSA - Rake Sharing
Rake/Coach Composition
Loco
HWH WDM 3A/3D
News    PNR    Forum    Time-Table    Availability    Fare Chart    Map    Arr/Dep History    Trips    Gallery    ΣChains    X/O    Timeline    
Travel Time: 16h 12m    48 halts    Distance: 480 km    Avg Speed: 29 km/hr
Type: Passenger
Zone: ER/Eastern
Departs @ 19:58 (Avg 2h 26m late)
Platform# 1
SMTWTFS
Jamalpur Junction/JMP 
Arrives @ 12:10 +1 night (Avg 4h 22m late)
Platform# 1
SMTWTFS
Kolkata Howrah Junction/HWH 

48 halts. 101 intermediate Stations between Jamalpur Junction and Kolkata Howrah Junction

Show ALL intermediate Stations  Show Old Time-Table

#CodeStation NameX/OArrivesAvgDepartsAvgHaltPFDay#KmSpeedElevZoneAddress
1RGDRajgir (3)  -12:40+2:18--1-176.73871mECRRajgir, Bihar
2NLDNalanda (2)  12:58+2:5912:59+3:161m--1-165.44063mECRNational Highway 82, Bihar
3BEHSBihar Sharif (2)  13:18+2:4313:23+2:465m--1-152.93656mECR06112-222306, Bihar
4WENAWena (2)  13:46+2:5813:47+3:121m--1-138.9947mECRWena, Bihar
5HRTHarnaut (3)X  14:21+2:5114:28+3:047m--1-133.85349mECRHarnaut, Bihar
6BKPBakhtiyarpur Junction (5)XO  14:40+2:0815:10+2:3430m--1-123.16851mECRPatna, Bihar
7ATLAthmal Gola (2)  15:18+4:1315:19+4:131m--1-114.05052mECRPatna, Bihar
8BARHBarh (3)X  15:30+1:5915:32+2:012m--1-104.97849mECRBarh, Bihar
9PHKPunarakh  15:40+4:2415:41+4:251m--1-94.52951mECRPunarakh, Bihar
10MORMorXO  15:58+4:2216:27+3:5629m--1-86.24846mECRMor, Bihar
11MKAMokama Junction (4)  16:36+2:5016:40+2:494m--1-79.05648mECRPatna, Bihar
12HTZHathidah Junction (2)X  16:49+3:0916:51+3:092m11-70.64650mECRMusahari, Bihar
13RDUMRampur Dumra (3)O  16:56+3:3816:57+3:421m--1-66.83746mECRNational Highway 80, Bihar
14BRYABarhiya (3)  17:06+2:1717:08+2:172m--1-61.22247mECRBarahiya, Bihar
15MKBMankatha  17:34+3:5817:40+4:066m--1-51.83047mECRNational Highway 80, Bihar
16LKRLuckeesarai Junction (2)X  17:51+4:0617:53+4:062m--1-46.21252mECRLakhisarai, Bihar
17KIULKiul Junction (5)X  18:00+1:4918:25+1:4625m--1-44.83653mECRDist. Lakhisarai, Bihar
18DNREDhanauri  18:35+4:1318:37+4:152m--1-38.84948mERNational Highway 80, Bihar
19URENUrenX  18:43+4:1718:45+4:192m--1-33.95845mERUren, Bihar
20KJHKajra (2)  18:50+3:5218:51+3:531m--1-29.16250mERLakhisarai District, Bihar
21AHAAbhaipur (2)X  18:58+4:2818:59+4:291m--1-21.84852mERAbhaipur, Bihar
22MSDNMasudan (2)  19:04+4:3119:05+4:311m--1-17.86045mERMasudan, Bihar
23DRHDharhara (2)  19:11+4:3119:12+4:311m--1-11.81855mERDharhara, Bihar
24DRTPDasharathpur (2)  19:30+4:2119:31+4:221m--1-6.43248mERDharhara, Bihar
25JMP»Jamalpur Junction (4)»  19:43+2:2619:58+2:2615m110.04259mERJamalpur 06344-243101, Bihar
26RPURRatanpur (2)  20:07+3:5420:08+3:541m--16.35846mERRatanpur Railway Station, Bihar
27BUPBariarpur (3)  20:13+4:2620:14+4:321m--111.11142mERMunger, Bihar
28KPRDKalyanpur Road (3)  20:21+4:3120:22+4:321m--112.41040mERMunger, Bihar
29GNNAGangani (2)  20:29+4:3120:30+4:311m--113.613338mERGangania, Bihar
30SGGSultanGanj (3)  20:37+4:1820:40+4:193m--129.15042mERSultanganj, Bihar
31AKNAkbarnagar (3)  20:52+4:3320:53+4:331m--139.14439mERTilakpur, Bihar
32NATNathnagar (2)  21:01+4:3421:02+4:351m--149.34048mERBhagalpur, Bihar
33BGPBhagalpur Junction (6)X  21:09+2:3321:19+2:3610m--154.05049mERBhagalpur, Bihar
34SBOSabaur (3)  21:28+4:5221:29+5:031m--161.64442mERSabour, Bihar
35LMMLailakh Mamalkha (2)  21:38+5:0421:39+5:081m--168.25836mERLailakh Mamlkha, Bihar
36GGAGhoga (2)  21:45+5:1321:47+5:152m--174.06942mERGhoga, Bihar
37EKCEkchari (1)  21:52+5:1821:53+5:191m1179.75237mERNational Highway 80, Bihar
38CLGKahalgaon (2)  21:58+5:2322:00+5:352m1184.14944mERBhagalpur, Bihar
39SVRPShivanarayanpur (2)X  22:14+5:0322:38+4:5024m--195.54847mERShivanarayanpur, Bihar
40PPTPirpainti (2)  22:49+4:5222:51+5:042m--1104.45653mERBhagalpur, Bihar
41MZCMirza Cheuki (3)X  23:00+5:0523:06+5:036m31112.92638mERBihar, Bihar
42SBGSahibganj Junction (3)X  23:41+4:5123:59+4:5518m11128.05438mERSahibganj, Jharkhand
43SLJSakrigali Junction (3)X  00:08+4:5700:09+5:011m--2136.05045mERSakrigali, Jharkhand
44MJPMaharajpur (2)  00:16+5:0400:17+5:151m--2141.97134mERMoharajpur, Jharkhand
45TLJTaljhari  00:27+5:2700:28+5:311m--2153.86538mERTaljhari, Jharkhand
46KXEKalian Chak  00:33+5:3600:34+5:371m--2159.28145mERKalian Chak, Jharkhand
47TPHTinpahar Junction (3)  00:39+5:3500:42+5:353m22165.95745mERBamangawan, Jharkhand
48BKLEBakudi (3)  00:51+5:3800:52+5:401m--2174.52665mERBakudi, Jharkhand
49BHWBarharwa Junction (3)X  01:10+5:3301:20+5:3310m22182.44436mERBarharwa, Jharkhand
50GMANGumani (3)X  01:30+5:5901:31+5:591m--2189.86731mERGumani, Jharkhand
51KLPKotalpukur (3)  01:37+6:0201:39+6:012m--2196.43840mERKotalpukur, Jharkhand
52TBBTilbhita (3)XO  01:51+5:5801:55+6:004m--2204.01731mERTilbhita, Jharkhand
53PKRPakur (2)X  02:10+4:3302:11+4:331m22208.24237mERDist:- Pakur, Jharkhand
54RJGRajgram (3)  02:26+6:0002:27+6:021m22218.87032mERRajgram, West Bengal
55MRRMurarai (3)  02:37+6:0002:38+6:031m--2230.47036mERMurarai, West Bengal
56NHTNalhati Junction (4)X  02:52+6:2002:54+6:232m22246.72948mERNalhati, West Bengal
57RPHRampurhat (3)  03:23+4:5003:43+4:4820m--2260.86741mERDIST - Birbhum, West Bengal
58SNTSainthia Junction (4)  04:08+4:4804:13+4:455m42288.84758mERDist - Birbhum, West Bengal
59AMPAhmadpur Junction (3)O  04:30+6:3204:35+6:285m--2302.02846mERDist - Birbhum, West Bengal
60PNEPrantik (3)  05:08+5:2505:09+5:251m--2317.25148mERPrantik, West Bengal
61BHPBolpur Shantiniketan (3)  05:14+5:3105:19+5:305m--2321.56059mERBolpur, West Bengal
62BDHBhedia (2)  05:27+5:2305:28+5:251m--2329.55541mERDist - Bardhaman, West Bengal
63GKHGuskara (2)X  05:40+5:2505:41+5:261m12340.46041mERDist - Bardhaman, West Bengal
64BPSBanpas (3)  05:51+5:2705:52+5:281m--2350.51146mERDist - Bardhaman, West Bengal
65KANKhana Junction (5)X  06:45+4:4906:46+4:501m--2360.25642mERDist - Bardhaman, West Bengal
66BWNBarddhaman Junction (8)XO  07:00+5:2107:20+5:2020m--2373.25034mERDist - Barddhaman, West Bengal
67MYMMemari (4)  07:50+4:4608:00+4:4110m--2398.32225mERMemari, West Bengal
68MUGMagra (3)  09:38+3:4309:43+3:495m--2433.7715mERMagra, West Bengal
69BDCBandel Junction (7)  10:44+4:4010:50+4:416m--2440.53214mERdist - HOOGHLY, West Bengal
70CNSChuchura (3)  10:57+4:5010:58+4:501m--2444.33615mERDist - HOOGHLY - 712102, West Bengal
71CGRChandan Nagar (3)  11:03+2:3511:05+5:032m--2447.35316mERDist -HOOGHLY - 712136, West Bengal
72SHESeoraphuli Junction (6)  11:17+2:3411:19+2:342m--2457.93013mERBaidyabati, West Bengal
73SRPSerampore (4)X  11:24+2:3311:28+5:014m--2460.42811mERdist - hooghly, West Bengal
74HWH•Kolkata Howrah Junction (23)•  12:10+4:22-12480.1-10mERHowrah 711101, West Bengal
Scroll to Top
Scroll to Bottom